ΕΜΥ, Εθνική Μετεωρολογική Υπηρεσία - Δελτία Καιρού, Προγνώσεις

ΑΕΡΟΝΑΥΤΙΛΙΑ

GREEK AIRPORTS CODES

TAF LGKC 292300Z 3000/3009 30018G28KT 9999 FEW020=

EUROPEAN AIRPORTS CODES

LFPO 292330Z 21004KT 9999 SCT046 BKN086 15/14 Q1017 NOSIG=